Time;durP1;ratioP1;P1;durP2;ratioP2;P2;SDS_P1;SDS_P2;PMS_P1;PMS_P2;Temp;Humidity;BMP_temperature;BMP_pressure;BME280_temperature;BME280_humidity;BME280_pressure;Samples;Min_cycle;Max_cycle;Signal;HPM_P1;HPM_P2
2022/07/28 00:01:05;;;;;;;4.10;2.20;;;;;;;11.78;66.92;100416.46;130152;1267;110283;-70
2022/07/28 00:04:11;;;;;;;2.70;1.90;;;;;;;11.68;66.92;100413.56;130156;1268;108857;-70
2022/07/28 00:07:16;;;;;;;3.30;1.80;;;;;;;11.58;67.37;100410.37;130199;1267;107876;-70
2022/07/28 00:10:22;;;;;;;2.60;1.60;;;;;;;11.53;67.37;100415.59;130199;1268;107463;-70
2022/07/28 00:13:27;;;;;;;3.30;2.20;;;;;;;11.49;67.33;100413.20;130166;1268;109450;-70
2022/07/28 00:16:33;;;;;;;3.20;2.30;;;;;;;11.46;67.73;100418.54;130133;1268;108618;-70
2022/07/28 00:19:38;;;;;;;3.40;2.10;;;;;;;11.43;67.59;100422.71;130175;1267;107750;-70
2022/07/28 00:22:44;;;;;;;2.60;1.70;;;;;;;11.40;67.78;100419.09;130151;1268;108600;-69
2022/07/28 00:25:50;;;;;;;2.70;1.80;;;;;;;11.43;67.64;100423.75;130178;1267;108094;-69
2022/07/28 00:28:55;;;;;;;3.50;2.10;;;;;;;11.40;67.94;100423.70;130140;1267;107767;-69
2022/07/28 00:32:01;;;;;;;3.00;2.30;;;;;;;11.29;67.73;100423.37;130135;1267;108647;-69
2022/07/28 00:35:08;;;;;;;4.60;2.30;;;;;;;11.18;67.78;100420.33;130140;1268;108820;-70
2022/07/28 00:38:13;;;;;;;2.50;1.90;;;;;;;11.11;67.71;100421.83;130131;1268;108672;-70
2022/07/28 00:41:19;;;;;;;3.10;1.80;;;;;;;11.10;68.00;100418.02;130147;1267;108961;-70
2022/07/28 00:44:25;;;;;;;4.50;2.40;;;;;;;11.06;68.26;100413.09;130150;1267;109605;-68
2022/07/28 00:47:30;;;;;;;3.40;2.30;;;;;;;11.05;68.31;100419.37;130161;1268;108652;-70
2022/07/28 00:50:37;;;;;;;2.70;2.00;;;;;;;11.01;68.35;100415.63;130210;1267;108864;-70
2022/07/28 00:53:43;;;;;;;4.00;2.50;;;;;;;11.01;68.13;100417.77;130227;1267;107035;-69
2022/07/28 00:56:48;;;;;;;4.60;2.50;;;;;;;11.05;68.30;100415.80;130176;1267;108562;-71
2022/07/28 00:59:53;;;;;;;3.30;2.50;;;;;;;11.03;68.39;100412.80;130117;1268;109353;-70
2022/07/28 01:02:59;;;;;;;3.40;2.60;;;;;;;10.89;68.36;100413.61;130086;1267;109073;-71
2022/07/28 01:06:15;;;;;;;4.90;2.40;;;;;;;10.68;67.97;100412.48;130222;1267;108909;-71
2022/07/28 01:09:37;;;;;;;2.60;2.20;;;;;;;10.50;68.69;100412.29;130221;1267;108946;-69
2022/07/28 01:12:49;;;;;;;;;;;;;;;10.46;68.55;100416.58;130158;1266;108882;-71
2022/07/28 01:15:58;;;;;;;3.60;2.30;;;;;;;10.49;68.66;100418.97;130241;1268;108824;-71
2022/07/28 01:19:14;;;;;;;4.70;2.60;;;;;;;10.47;68.50;100421.95;130252;1267;107866;-71
2022/07/28 01:22:25;;;;;;;4.90;2.60;;;;;;;10.32;68.68;100421.96;130194;1267;107712;-71
2022/07/28 01:25:40;;;;;;;3.40;2.50;;;;;;;10.20;68.89;100425.89;130252;1267;108360;-71
2022/07/28 01:28:59;;;;;;;4.80;3.00;;;;;;;10.13;69.12;100426.99;130254;1267;108905;-72
2022/07/28 01:32:09;;;;;;;4.00;2.60;;;;;;;10.16;69.22;100428.46;130220;1267;108875;-71
2022/07/28 01:35:25;;;;;;;5.00;2.80;;;;;;;10.21;68.77;100426.36;130226;1268;107735;-75
2022/07/28 01:38:32;;;;;;;4.40;2.70;;;;;;;10.21;69.03;100428.14;130344;1267;108455;-73
2022/07/28 01:41:39;;;;;;;6.60;2.80;;;;;;;10.22;69.07;100427.73;130229;1267;108760;-72
2022/07/28 01:44:48;;;;;;;3.70;2.70;;;;;;;10.21;68.75;100428.36;130252;1267;107299;-72
2022/07/28 01:47:56;;;;;;;5.00;2.70;;;;;;;10.08;68.59;100433.36;130228;1267;108754;-72
2022/07/28 01:51:04;;;;;;;4.70;2.80;;;;;;;10.00;69.05;100432.13;130291;1267;108712;-72
2022/07/28 01:54:11;;;;;;;5.50;3.00;;;;;;;9.90;69.35;100430.36;130290;1268;108731;-72
2022/07/28 01:57:18;;;;;;;3.90;2.60;;;;;;;9.78;69.25;100432.89;130284;1268;107192;-71
2022/07/28 02:00:24;;;;;;;4.30;2.40;;;;;;;9.77;69.67;100433.38;130090;1267;108501;-70
2022/07/28 02:03:32;;;;;;;4.00;2.80;;;;;;;9.84;69.48;100431.12;130121;1268;108755;-70
2022/07/28 02:06:39;;;;;;;3.60;2.80;;;;;;;9.88;69.39;100432.20;130070;1268;108650;-70
2022/07/28 02:09:46;;;;;;;4.70;2.80;;;;;;;9.87;69.14;100431.81;130164;1268;108630;-71
2022/07/28 02:12:54;;;;;;;4.30;2.70;;;;;;;9.83;69.08;100430.84;130306;1268;108860;-71
2022/07/28 02:16:00;;;;;;;3.30;2.80;;;;;;;9.74;69.24;100432.63;130219;1268;108428;-72
2022/07/28 02:19:06;;;;;;;4.10;2.90;;;;;;;9.68;69.23;100434.91;130302;1268;109042;-71
2022/07/28 02:22:13;;;;;;;6.00;2.90;;;;;;;9.55;69.54;100439.55;130305;1268;108620;-72
2022/07/28 02:25:19;;;;;;;3.40;2.80;;;;;;;9.48;69.57;100439.27;130323;1267;108136;-72
2022/07/28 02:28:27;;;;;;;3.60;2.50;;;;;;;9.45;69.46;100444.16;130285;1268;106868;-72
2022/07/28 02:31:37;;;;;;;5.50;2.30;;;;;;;9.26;69.69;100443.06;130312;1268;107502;-72
2022/07/28 02:34:44;;;;;;;5.80;2.80;;;;;;;9.19;69.82;100437.30;130271;1268;108873;-72
2022/07/28 02:37:55;;;;;;;3.60;2.70;;;;;;;9.27;69.66;100438.19;130313;1267;107309;-72
2022/07/28 02:41:08;;;;;;;3.50;2.80;;;;;;;9.27;69.54;100437.66;130131;1268;108855;-71
2022/07/28 02:44:27;;;;;;;3.20;2.70;;;;;;;9.27;69.55;100436.94;130137;1268;108082;-69
2022/07/28 02:47:38;;;;;;;3.60;2.90;;;;;;;9.23;69.48;100435.37;130142;1268;108254;-71
2022/07/28 02:50:45;;;;;;;5.70;2.80;;;;;;;9.14;69.55;100435.59;130244;1268;109740;-72
2022/07/28 02:53:51;;;;;;;5.60;2.60;;;;;;;9.14;69.63;100434.60;130347;1268;108530;-72
2022/07/28 02:56:58;;;;;;;4.20;2.80;;;;;;;9.13;69.72;100440.54;130317;1268;108189;-72
2022/07/28 03:00:04;;;;;;;6.20;2.30;;;;;;;9.11;69.74;100443.90;130296;1268;108889;-72
2022/07/28 03:03:10;;;;;;;4.20;2.60;;;;;;;8.99;69.85;100450.80;130258;1268;108947;-73
2022/07/28 03:06:17;;;;;;;4.30;2.70;;;;;;;8.89;70.00;100447.45;130360;1268;108768;-70
2022/07/28 03:09:22;;;;;;;4.90;2.90;;;;;;;8.87;69.97;100454.71;130009;1268;108781;-69
2022/07/28 03:12:28;;;;;;;4.30;2.80;;;;;;;8.85;69.92;100458.80;130093;1268;107697;-72
2022/07/28 03:15:34;;;;;;;4.20;2.80;;;;;;;8.83;69.97;100463.19;130271;1268;108840;-71
2022/07/28 03:18:40;;;;;;;3.40;2.90;;;;;;;8.81;70.04;100470.71;130188;1268;107721;-71
2022/07/28 03:21:48;;;;;;;3.60;2.60;;;;;;;8.86;70.18;100474.01;130094;1268;108109;-70
2022/07/28 03:24:56;;;;;;;3.60;2.40;;;;;;;8.88;69.90;100475.08;130175;1268;109530;-71
2022/07/28 03:28:03;;;;;;;3.80;2.80;;;;;;;8.87;70.09;100474.80;130168;1268;108157;-70
2022/07/28 03:31:11;;;;;;;3.40;2.50;;;;;;;8.87;69.89;100481.13;130229;1268;107356;-71
2022/07/28 03:34:17;;;;;;;3.60;2.50;;;;;;;8.86;70.18;100481.77;130186;1268;109050;-70
2022/07/28 03:37:28;;;;;;;3.40;2.50;;;;;;;8.89;70.19;100482.26;130188;1268;110072;-70
2022/07/28 03:40:36;;;;;;;4.20;2.80;;;;;;;8.90;70.09;100484.30;130218;1267;108733;-71
2022/07/28 03:43:42;;;;;;;3.40;2.80;;;;;;;8.85;70.43;100487.53;130189;1268;108596;-71
2022/07/28 03:46:48;;;;;;;5.20;2.50;;;;;;;8.86;70.48;100484.30;130184;1268;107484;-72
2022/07/28 03:49:53;;;;;;;3.90;2.60;;;;;;;8.91;70.51;100487.60;130194;1268;108870;-71
2022/07/28 03:53:01;;;;;;;3.40;2.30;;;;;;;8.85;70.74;100489.13;130115;1268;108821;-71
2022/07/28 03:56:07;;;;;;;3.70;2.50;;;;;;;9.06;71.43;100494.70;130164;1268;108826;-71
2022/07/28 03:59:12;;;;;;;3.00;2.20;;;;;;;9.78;73.72;100491.92;130206;1268;107920;-71
2022/07/28 04:02:18;;;;;;;4.00;2.30;;;;;;;10.66;73.98;100492.02;130189;1267;108873;-71
2022/07/28 04:05:23;;;;;;;3.70;2.40;;;;;;;11.54;74.34;100489.05;130235;1268;108799;-70
2022/07/28 04:08:28;;;;;;;2.90;2.00;;;;;;;12.43;73.85;100485.27;130224;1267;108652;-70
2022/07/28 04:11:34;;;;;;;3.90;2.00;;;;;;;13.28;72.89;100488.30;130159;1267;109559;-70
2022/07/28 04:14:40;;;;;;;3.10;2.10;;;;;;;14.02;71.88;100482.41;130174;1267;108677;-69
2022/07/28 04:17:47;;;;;;;3.10;2.30;;;;;;;14.61;71.06;100486.24;130161;1268;108949;-69
2022/07/28 04:20:52;;;;;;;3.10;2.40;;;;;;;15.13;70.11;100488.23;130200;1268;108167;-69
2022/07/28 04:23:58;;;;;;;4.20;2.60;;;;;;;15.29;68.12;100485.64;130224;1268;109583;-71
2022/07/28 04:27:03;;;;;;;3.90;2.20;;;;;;;15.12;68.01;100487.72;130225;1268;108740;-70
2022/07/28 04:30:12;;;;;;;3.90;2.50;;;;;;;15.05;68.34;100493.95;130222;1267;108867;-70
2022/07/28 04:33:18;;;;;;;3.20;2.30;;;;;;;15.04;68.28;100497.06;130253;1267;108763;-69
2022/07/28 04:36:23;;;;;;;3.40;2.40;;;;;;;14.99;68.30;100500.70;130188;1267;109558;-70
2022/07/28 04:39:29;;;;;;;3.80;2.90;;;;;;;14.93;68.29;100500.27;130156;1267;107577;-70
2022/07/28 04:42:35;;;;;;;3.80;2.60;;;;;;;14.98;68.26;100501.38;130155;1268;111495;-69
2022/07/28 04:45:40;;;;;;;4.10;2.60;;;;;;;14.93;68.20;100501.39;130150;1267;108807;-70
2022/07/28 04:48:46;;;;;;;4.10;2.30;;;;;;;14.97;68.52;100504.56;130159;1267;108552;-69
2022/07/28 04:51:51;;;;;;;5.00;2.10;;;;;;;15.03;68.54;100504.04;130096;1267;108678;-70
2022/07/28 04:54:56;;;;;;;3.00;2.20;;;;;;;15.10;68.48;100504.95;129982;1268;108917;-70
2022/07/28 04:58:02;;;;;;;2.50;2.10;;;;;;;15.21;68.57;100500.00;130109;1268;107650;-71
2022/07/28 05:01:08;;;;;;;3.90;2.60;;;;;;;15.38;68.68;100499.58;130145;1268;108697;-70
2022/07/28 05:04:13;;;;;;;3.90;2.50;;;;;;;15.58;68.87;100496.18;130179;1268;108625;-70
2022/07/28 05:07:18;;;;;;;5.20;2.90;;;;;;;15.76;68.94;100492.16;130203;1268;108888;-70
2022/07/28 05:10:24;;;;;;;4.20;2.90;;;;;;;15.92;69.11;100493.17;130147;1268;109539;-71
2022/07/28 05:13:29;;;;;;;5.20;3.00;;;;;;;16.03;69.11;100497.74;130128;1268;110404;-71
2022/07/28 05:16:34;;;;;;;4.00;2.20;;;;;;;16.16;69.25;100499.27;130171;1268;109590;-71
2022/07/28 05:19:40;;;;;;;4.80;2.50;;;;;;;16.32;69.23;100498.55;130159;1267;108715;-71
2022/07/28 05:22:49;;;;;;;7.00;2.70;;;;;;;16.52;68.92;100499.60;130149;1268;108772;-71
2022/07/28 05:25:55;;;;;;;3.40;2.50;;;;;;;16.75;68.68;100505.79;130237;1267;108380;-71
2022/07/28 05:29:00;;;;;;;6.20;2.50;;;;;;;16.99;68.53;100505.57;130271;1268;108329;-71
2022/07/28 05:32:07;;;;;;;5.30;2.60;;;;;;;17.19;68.14;100507.83;130233;1268;108816;-73
2022/07/28 05:35:12;;;;;;;7.00;2.50;;;;;;;17.38;68.05;100504.59;130229;1268;107530;-72
2022/07/28 05:38:18;;;;;;;5.00;2.30;;;;;;;17.52;67.61;100506.57;130273;1268;108964;-73
2022/07/28 05:41:23;;;;;;;4.00;2.10;;;;;;;17.64;67.24;100511.50;130112;1267;108721;-71
2022/07/28 05:44:29;;;;;;;3.50;1.90;;;;;;;17.76;67.31;100514.75;130176;1268;108864;-70
2022/07/28 05:47:42;;;;;;;4.70;2.30;;;;;;;17.86;67.05;100515.87;130134;1267;108782;-71
2022/07/28 05:50:49;;;;;;;3.30;1.70;;;;;;;17.93;66.19;100519.84;130303;1267;108814;-71
2022/07/28 05:53:54;;;;;;;4.60;1.80;;;;;;;17.98;65.80;100513.11;130255;1267;108578;-71
2022/07/28 05:57:00;;;;;;;3.50;1.70;;;;;;;18.02;65.19;100513.80;130238;1268;108581;-73
2022/07/28 06:00:08;;;;;;;2.40;1.50;;;;;;;18.08;65.42;100515.42;130263;1268;108683;-71
2022/07/28 06:03:17;;;;;;;2.80;1.70;;;;;;;18.14;65.41;100515.53;130305;1268;108978;-72
2022/07/28 06:06:22;;;;;;;3.50;1.80;;;;;;;18.21;64.97;100516.16;130222;1268;108951;-71
2022/07/28 06:09:28;;;;;;;5.00;2.00;;;;;;;18.24;65.09;100517.97;130239;1268;108963;-71
2022/07/28 06:12:38;;;;;;;3.30;2.00;;;;;;;18.31;65.01;100520.96;130318;1268;109000;-71
2022/07/28 06:15:46;;;;;;;3.40;1.80;;;;;;;18.36;64.75;100521.23;130296;1268;108919;-71
2022/07/28 06:18:51;;;;;;;2.90;1.90;;;;;;;18.38;63.70;100523.74;130229;1268;108586;-71
2022/07/28 06:21:57;;;;;;;3.70;1.90;;;;;;;18.29;62.08;100524.44;130193;1268;108699;-71
2022/07/28 06:25:02;;;;;;;4.30;2.00;;;;;;;18.19;62.00;100521.73;130216;1268;108823;-71
2022/07/28 06:28:08;;;;;;;4.80;2.10;;;;;;;18.19;62.87;100522.00;130200;1268;107665;-71
2022/07/28 06:31:13;;;;;;;3.10;1.60;;;;;;;18.22;61.81;100521.02;130237;1268;108959;-73
2022/07/28 06:34:18;;;;;;;4.20;1.40;;;;;;;18.20;61.48;100521.80;130339;1268;108871;-71
2022/07/28 06:37:24;;;;;;;3.40;1.60;;;;;;;18.22;60.81;100521.15;130303;1268;108836;-71
2022/07/28 06:40:30;;;;;;;2.80;1.50;;;;;;;18.19;59.66;100527.48;130261;1268;108832;-71
2022/07/28 06:43:35;;;;;;;3.70;1.50;;;;;;;18.18;61.36;100524.77;130291;1268;107589;-71
2022/07/28 06:46:41;;;;;;;2.30;1.60;;;;;;;18.25;61.14;100529.02;130357;1268;108804;-71
2022/07/28 06:49:46;;;;;;;3.20;1.60;;;;;;;18.29;58.99;100531.33;130300;1268;108749;-71
2022/07/28 06:52:52;;;;;;;2.60;1.40;;;;;;;18.19;57.79;100533.50;130322;1268;108911;-71
2022/07/28 06:55:57;;;;;;;5.20;1.50;;;;;;;18.15;58.94;100534.88;130272;1268;108892;-71
2022/07/28 06:59:02;;;;;;;2.10;1.20;;;;;;;18.21;58.99;100535.68;130297;1268;108998;-71
2022/07/28 07:02:08;;;;;;;3.10;1.60;;;;;;;18.30;58.69;100534.41;130363;1268;107742;-71
2022/07/28 07:05:14;;;;;;;4.00;1.50;;;;;;;18.32;59.07;100534.60;130259;1268;108848;-71
2022/07/28 07:08:20;;;;;;;3.40;1.50;;;;;;;18.45;59.69;100537.17;130964;1268;109482;-72
2022/07/28 07:11:26;;;;;;;2.30;1.30;;;;;;;18.56;58.19;100542.73;130440;1268;107846;-71
2022/07/28 07:14:31;;;;;;;4.80;1.30;;;;;;;18.63;58.54;100543.77;130268;1268;109830;-71
2022/07/28 07:17:37;;;;;;;2.00;1.40;;;;;;;18.71;59.08;100544.91;130349;1268;108769;-71
2022/07/28 07:20:42;;;;;;;3.00;1.20;;;;;;;18.86;59.90;100541.39;130390;1268;108078;-72
2022/07/28 07:23:48;;;;;;;2.40;1.20;;;;;;;18.98;58.40;100545.65;130339;1268;108825;-71
2022/07/28 07:26:54;;;;;;;2.10;1.30;;;;;;;19.04;57.41;100546.67;130348;1268;109073;-71
2022/07/28 07:29:59;;;;;;;1.90;1.10;;;;;;;19.09;58.13;100546.04;130173;1268;107541;-71
2022/07/28 07:33:04;;;;;;;2.70;1.30;;;;;;;19.15;58.96;100543.22;130288;1268;108923;-71
2022/07/28 07:36:10;;;;;;;3.70;1.20;;;;;;;19.19;55.60;100548.61;130333;1268;108915;-72
2022/07/28 07:39:16;;;;;;;2.90;1.30;;;;;;;19.11;56.52;100543.05;130348;1268;108875;-71
2022/07/28 07:42:22;;;;;;;2.20;1.20;;;;;;;19.12;55.83;100544.91;130316;1268;109007;-72
2022/07/28 07:45:27;;;;;;;2.00;1.20;;;;;;;19.22;56.83;100550.45;130131;1268;109173;-72
2022/07/28 07:48:33;;;;;;;1.80;1.00;;;;;;;19.31;56.76;100548.65;130292;1268;108740;-72
2022/07/28 07:51:38;;;;;;;2.00;1.40;;;;;;;19.39;54.66;100550.26;130248;1268;109025;-72
2022/07/28 07:54:44;;;;;;;2.30;1.30;;;;;;;19.33;53.28;100547.45;130238;1268;108977;-72
2022/07/28 07:57:49;;;;;;;2.40;1.20;;;;;;;19.33;54.62;100543.20;130355;1268;108718;-72
2022/07/28 08:00:55;;;;;;;1.70;1.30;;;;;;;19.37;54.75;100544.13;130398;1268;107556;-73
2022/07/28 08:04:00;;;;;;;1.80;1.10;;;;;;;19.50;56.29;100545.83;130321;1268;108858;-72
2022/07/28 08:07:06;;;;;;;3.80;1.60;;;;;;;19.62;54.21;100546.15;130322;1268;108874;-72
2022/07/28 08:10:14;;;;;;;3.60;1.20;;;;;;;19.64;54.43;100542.81;130342;1268;108658;-73
2022/07/28 08:13:21;;;;;;;4.90;1.30;;;;;;;19.68;52.34;100545.52;130246;1268;108635;-72
2022/07/28 08:16:27;;;;;;;2.50;1.40;;;;;;;19.73;53.93;100545.68;130339;1268;107984;-73
2022/07/28 08:19:32;;;;;;;2.00;1.10;;;;;;;19.82;52.78;100546.58;130292;1268;107664;-73
2022/07/28 08:22:48;;;;;;;2.00;1.00;;;;;;;19.92;53.40;100550.63;130293;1268;108876;-73
2022/07/28 08:25:53;;;;;;;2.30;1.00;;;;;;;19.94;50.40;100545.30;130186;1268;109654;-73
2022/07/28 08:28:59;;;;;;;3.70;1.20;;;;;;;19.88;50.45;100544.67;130265;1268;108690;-73
2022/07/28 08:32:05;;;;;;;1.70;1.10;;;;;;;19.85;49.43;100548.03;130238;1268;108818;-73
2022/07/28 08:35:11;;;;;;;2.90;1.30;;;;;;;19.88;48.79;100548.88;130362;1268;107691;-73
2022/07/28 08:38:16;;;;;;;2.40;1.00;;;;;;;19.93;50.68;100551.80;130336;1267;108624;-74
2022/07/28 08:41:26;;;;;;;2.20;0.90;;;;;;;19.98;48.44;100554.50;130217;1268;108561;-73
2022/07/28 08:44:38;;;;;;;3.40;1.30;;;;;;;19.95;48.54;100550.13;130256;1268;107184;-73
2022/07/28 08:47:45;;;;;;;3.00;1.30;;;;;;;19.95;49.12;100550.92;130303;1268;108835;-72
2022/07/28 08:50:52;;;;;;;2.20;1.10;;;;;;;20.01;49.89;100546.55;130389;1268;108707;-72
2022/07/28 08:53:58;;;;;;;3.20;1.40;;;;;;;20.08;48.70;100544.59;130316;1268;108465;-71
2022/07/28 08:57:04;;;;;;;2.20;1.20;;;;;;;20.09;49.03;100548.70;130347;1268;108635;-72
2022/07/28 09:00:11;;;;;;;3.00;1.20;;;;;;;20.17;49.08;100547.84;130342;1268;108979;-72
2022/07/28 09:03:18;;;;;;;2.50;1.10;;;;;;;20.24;49.27;100550.21;130267;1268;108897;-72
2022/07/28 09:06:25;;;;;;;2.60;1.10;;;;;;;20.31;50.45;100552.33;130279;1268;108249;-71
2022/07/28 09:09:30;;;;;;;1.90;1.10;;;;;;;20.35;49.43;100551.71;130169;1268;109382;-73
2022/07/28 09:12:36;;;;;;;2.20;1.00;;;;;;;20.44;50.49;100554.95;130267;1268;108851;-73
2022/07/28 09:15:45;;;;;;;2.90;1.00;;;;;;;20.54;50.79;100550.17;130212;1268;109113;-74
2022/07/28 09:18:50;;;;;;;3.60;1.00;;;;;;;20.63;50.71;100552.10;130052;1271;108684;-74
2022/07/28 09:21:59;;;;;;;1.60;1.00;;;;;;;20.66;48.77;100557.94;130083;1271;108937;-72
2022/07/28 09:25:17;;;;;;;2.20;0.90;;;;;;;20.68;49.23;100555.02;130201;1268;107478;-72
2022/07/28 09:28:23;;;;;;;1.50;0.90;;;;;;;20.63;47.92;100557.52;130141;1271;108994;-72
2022/07/28 09:31:30;;;;;;;2.40;0.90;;;;;;;20.58;48.16;100551.55;130151;1271;107241;-72
2022/07/28 09:34:42;;;;;;;3.20;1.10;;;;;;;20.62;49.19;100546.80;130160;1268;108809;-73
2022/07/28 09:37:58;;;;;;;2.80;1.20;;;;;;;20.69;49.55;100546.54;130219;1268;108869;-72
2022/07/28 09:41:06;;;;;;;1.90;0.90;;;;;;;20.79;49.98;100545.85;130046;1271;107361;-73
2022/07/28 09:44:19;;;;;;;1.10;0.90;;;;;;;20.84;48.13;100552.05;130037;1270;108865;-72
2022/07/28 09:47:26;;;;;;;2.20;1.10;;;;;;;20.91;48.98;100545.71;130072;1271;108808;-72
2022/07/28 09:50:32;;;;;;;2.80;1.00;;;;;;;20.89;47.46;100541.98;130076;1270;108715;-72
2022/07/28 09:53:37;;;;;;;2.50;1.10;;;;;;;20.86;47.54;100542.61;130098;1270;108582;-73
2022/07/28 09:56:45;;;;;;;1.20;0.90;;;;;;;20.84;48.52;100543.36;129999;1270;108936;-73
2022/07/28 09:59:50;;;;;;;2.20;0.90;;;;;;;20.90;48.75;100541.89;130232;1268;107059;-72
2022/07/28 10:02:56;;;;;;;2.80;0.90;;;;;;;20.98;48.17;100546.08;130267;1268;108806;-73
2022/07/28 10:06:07;;;;;;;2.10;0.90;;;;;;;21.06;47.86;100546.45;130261;1268;107245;-73
2022/07/28 10:09:13;;;;;;;2.20;1.00;;;;;;;21.10;46.54;100548.29;130291;1268;108770;-73
2022/07/28 10:12:21;;;;;;;1.60;1.00;;;;;;;21.10;47.80;100545.14;130282;1268;108158;-72
2022/07/28 10:18:50;;;;;;;1.80;0.90;;;;;;;21.19;46.91;100549.49;130235;1268;108777;-73
2022/07/28 10:21:56;;;;;;;2.30;0.90;;;;;;;21.18;46.76;100547.54;130187;1269;108911;-74
2022/07/28 10:25:06;;;;;;;3.20;1.00;;;;;;;21.23;47.79;100545.58;130229;1268;108724;-72
2022/07/28 10:28:16;;;;;;;2.70;0.80;;;;;;;21.27;46.72;100538.44;130114;1268;109025;-74
2022/07/28 10:31:29;;;;;;;4.70;0.70;;;;;;;21.30;45.70;100539.16;130107;1268;110198;-72
2022/07/28 10:34:37;;;;;;;2.60;0.80;;;;;;;21.39;47.22;100541.29;130203;1268;108648;-72
2022/07/28 10:37:51;;;;;;;2.40;1.00;;;;;;;21.51;47.59;100535.83;130190;1268;109011;-73
2022/07/28 10:40:58;;;;;;;3.60;1.10;;;;;;;21.61;46.28;100537.89;130219;1268;108862;-73
2022/07/28 10:44:05;;;;;;;1.70;0.90;;;;;;;21.62;46.39;100535.38;130269;1268;109008;-72
2022/07/28 10:47:11;;;;;;;1.60;1.00;;;;;;;21.66;47.05;100536.77;130311;1268;108632;-72
2022/07/28 10:50:18;;;;;;;3.10;0.90;;;;;;;21.71;46.89;100535.06;130196;1268;108360;-73
2022/07/28 10:53:45;;;;;;;2.60;1.00;;;;;;;21.77;45.54;100534.98;130306;1268;108704;-72
2022/07/28 10:56:53;;;;;;;3.10;0.90;;;;;;;21.73;45.66;100533.16;130352;1268;108035;-72
2022/07/28 11:00:16;;;;;;;1.30;0.80;;;;;;;21.71;44.65;100528.13;129875;1267;551825;-72
2022/07/28 11:03:42;;;;;;;1.60;0.80;;;;;;;21.65;44.27;100526.08;130277;1268;108966;-72
2022/07/28 11:06:48;;;;;;;2.60;0.70;;;;;;;21.63;44.24;100528.36;130284;1268;109599;-72
2022/07/28 11:09:53;;;;;;;1.80;0.80;;;;;;;21.66;45.98;100522.86;130274;1268;108622;-72
2022/07/28 11:13:00;;;;;;;3.50;0.90;;;;;;;21.66;44.09;100519.55;130212;1269;108910;-73
2022/07/28 11:16:23;;;;;;;1.30;0.80;;;;;;;21.67;45.82;100516.75;130194;1270;108726;-72
2022/07/28 11:19:30;;;;;;;1.40;0.90;;;;;;;21.80;44.84;100517.52;130214;1270;108718;-72
2022/07/28 11:22:36;;;;;;;4.80;0.70;;;;;;;21.86;43.68;100514.84;130230;1271;108637;-72
2022/07/28 11:25:41;;;;;;;1.40;0.80;;;;;;;21.86;45.01;100512.78;130196;1268;108750;-72
2022/07/28 11:29:16;;;;;;;2.20;1.00;;;;;;;21.87;44.81;100507.77;130137;1271;108878;-72
2022/07/28 11:32:21;;;;;;;2.00;1.00;;;;;;;21.89;43.30;100514.11;130139;1270;109126;-72
2022/07/28 11:35:27;;;;;;;2.40;1.00;;;;;;;21.85;44.50;100504.83;130214;1270;108741;-72
2022/07/28 11:38:33;;;;;;;1.90;0.90;;;;;;;21.97;44.66;100503.35;130218;1271;108784;-72
2022/07/28 11:41:38;;;;;;;2.40;0.80;;;;;;;22.07;44.31;100507.40;130187;1271;108956;-72
2022/07/28 11:44:44;;;;;;;2.20;0.80;;;;;;;22.11;43.18;100506.18;130185;1270;108764;-72
2022/07/28 11:48:09;;;;;;;1.50;0.90;;;;;;;22.13;42.38;100507.35;130132;1270;107526;-72
2022/07/28 11:51:15;;;;;;;2.50;0.80;;;;;;;22.14;43.89;100505.69;130169;1270;108865;-72
2022/07/28 11:54:20;;;;;;;1.70;0.70;;;;;;;22.19;43.71;100501.93;130179;1271;108863;-72
2022/07/28 11:57:27;;;;;;;1.90;0.70;;;;;;;22.26;42.52;100501.73;130161;1271;107556;-72
2022/07/28 12:00:32;;;;;;;1.90;0.90;;;;;;;22.31;42.84;100498.85;130201;1271;109074;-72
2022/07/28 12:03:40;;;;;;;2.20;0.90;;;;;;;22.32;42.47;100496.27;130191;1270;108895;-72
2022/07/28 12:06:46;;;;;;;2.30;0.90;;;;;;;22.27;42.52;100493.57;130236;1270;107546;-72
2022/07/28 12:09:52;;;;;;;2.30;0.70;;;;;;;22.18;41.98;100497.76;130204;1268;108988;-73
2022/07/28 12:12:59;;;;;;;1.70;0.70;;;;;;;22.10;42.18;100493.06;130269;1268;108967;-72
2022/07/28 12:16:04;;;;;;;2.00;0.90;;;;;;;22.14;43.20;100488.36;130207;1270;108968;-73
2022/07/28 12:19:11;;;;;;;2.40;0.90;;;;;;;22.30;43.30;100490.06;130172;1270;108642;-72
2022/07/28 12:22:16;;;;;;;1.20;0.70;;;;;;;22.43;43.13;100485.83;130230;1271;107657;-72
2022/07/28 12:25:22;;;;;;;1.70;0.70;;;;;;;22.53;43.47;100479.16;130194;1270;108884;-73
2022/07/28 12:28:28;;;;;;;1.70;0.80;;;;;;;22.67;42.13;100475.39;130224;1270;108896;-74
2022/07/28 12:31:36;;;;;;;1.90;0.90;;;;;;;22.78;41.66;100476.46;130253;1269;107397;-74
2022/07/28 12:34:43;;;;;;;1.50;0.70;;;;;;;22.87;41.65;100479.09;130228;1269;107421;-73
2022/07/28 12:37:49;;;;;;;1.70;0.80;;;;;;;23.05;43.06;100476.05;130270;1268;108240;-74
2022/07/28 12:40:55;;;;;;;1.30;0.80;;;;;;;23.28;42.98;100478.89;130313;1266;108798;-72
2022/07/28 12:44:01;;;;;;;2.50;0.80;;;;;;;23.39;42.65;100475.21;130186;1268;109010;-72
2022/07/28 12:47:10;;;;;;;1.30;0.70;;;;;;;23.44;42.39;100473.08;130194;1268;108659;-72
2022/07/28 12:50:18;;;;;;;2.40;0.80;;;;;;;23.43;41.57;100478.33;130244;1268;108603;-72
2022/07/28 12:53:24;;;;;;;1.90;0.90;;;;;;;23.37;42.02;100475.55;130205;1268;109024;-73
2022/07/28 12:56:31;;;;;;;2.60;0.80;;;;;;;23.38;41.19;100477.90;130359;1268;109728;-72
2022/07/28 12:59:39;;;;;;;3.70;1.10;;;;;;;23.28;41.04;100478.64;130305;1268;108764;-72
2022/07/28 13:02:44;;;;;;;1.60;0.80;;;;;;;23.17;40.84;100485.04;130201;1268;108916;-73
2022/07/28 13:06:02;;;;;;;1.20;0.80;;;;;;;23.02;39.73;100485.27;130314;1268;109755;-72
2022/07/28 13:09:07;;;;;;;1.80;1.00;;;;;;;22.94;40.78;100480.67;130246;1268;108741;-74
2022/07/28 13:12:22;;;;;;;2.00;0.80;;;;;;;22.96;40.92;100479.27;130007;1267;108996;-73
2022/07/28 13:15:28;;;;;;;1.40;0.70;;;;;;;23.03;40.71;100482.11;130231;1268;108602;-73
2022/07/28 13:18:41;;;;;;;1.60;0.60;;;;;;;23.06;40.77;100481.59;130240;1268;108951;-72
2022/07/28 13:21:50;;;;;;;2.00;0.70;;;;;;;23.09;41.69;100483.14;130220;1267;109940;-72
2022/07/28 13:24:56;;;;;;;1.00;0.80;;;;;;;23.12;42.24;100478.16;130262;1269;107186;-72
2022/07/28 13:28:02;;;;;;;1.90;0.70;;;;;;;23.12;41.39;100484.14;130200;1270;108667;-72
2022/07/28 13:31:07;;;;;;;1.80;0.80;;;;;;;22.99;40.88;100485.62;130181;1270;108861;-72
2022/07/28 13:34:13;;;;;;;2.90;0.90;;;;;;;22.98;40.79;100484.34;130211;1270;108979;-72
2022/07/28 13:37:18;;;;;;;2.40;1.00;;;;;;;23.08;41.68;100482.90;130136;1270;108818;-72
2022/07/28 13:40:24;;;;;;;1.00;0.80;;;;;;;23.20;40.92;100487.67;130179;1270;109300;-72
2022/07/28 13:43:29;;;;;;;1.70;0.70;;;;;;;23.20;40.25;100485.00;129941;1270;107746;-72
2022/07/28 13:46:36;;;;;;;1.10;0.70;;;;;;;23.25;40.87;100489.20;130087;1270;108732;-72
2022/07/28 13:49:41;;;;;;;1.70;0.80;;;;;;;23.42;40.90;100480.70;130184;1270;107235;-73
2022/07/28 13:52:47;;;;;;;1.10;0.70;;;;;;;23.44;40.10;100484.39;130163;1270;109037;-72
2022/07/28 13:55:52;;;;;;;2.90;1.00;;;;;;;23.51;40.24;100478.64;130200;1268;108884;-72
2022/07/28 13:58:58;;;;;;;1.50;0.80;;;;;;;23.58;40.30;100480.99;130271;1268;108636;-72
2022/07/28 14:02:04;;;;;;;1.00;0.70;;;;;;;23.61;40.11;100482.91;130203;1268;108875;-72
2022/07/28 14:05:11;;;;;;;1.70;0.70;;;;;;;23.70;39.81;100478.36;130251;1268;108977;-72
2022/07/28 14:08:18;;;;;;;1.50;0.90;;;;;;;23.84;39.97;100481.19;130258;1267;108491;-72
2022/07/28 14:11:24;;;;;;;2.10;1.00;;;;;;;23.95;40.49;100477.95;130212;1268;108833;-72
2022/07/28 14:14:29;;;;;;;1.10;0.90;;;;;;;24.05;40.84;100465.91;130222;1268;108700;-72
2022/07/28 14:17:34;;;;;;;1.20;0.70;;;;;;;24.03;38.78;100481.30;130276;1268;108981;-74